Sour Lake, Texas
Current Conditions -  °F | °C
As of 4:55 PM on Friday 28 Nov 2014 (Local Time) from KBMT Reporting Station
Overcast Overcast  
Wind Chill: 63°   Ceiling: 5000
Heat Index: 63°   Visibility: 10mi
Dew Point: 55°   Wind: 7mph
Humidity: 75%   Direction: 150°SSE
Pressure: 30.21"   Gusts: NA
Location:  30.14°N, 94.41°W
Report Text: KBMT 282255Z AUTO 15006KT 10SM SCT043 OVC050 17/13 A3021 RMK AO2 T01730128
Loading
Personal Weather Stations






























Interactive Weather Map New forecast layout! Learn more

10-Day Weather Forecast

Advertisements
Track Severe Weather on mobile